sensor_id;sensor_type;location;lat;lon;timestamp;temperature;humidity
11615;DHT22;5863;52.832;4.758;2023-02-15T00:01:55;4.60;99.90
11615;DHT22;5863;52.832;4.758;2023-02-15T00:04:24;4.60;99.90
11615;DHT22;5863;52.832;4.758;2023-02-15T00:07:13;4.60;99.90
11615;DHT22;5863;52.832;4.758;2023-02-15T00:09:40;4.60;99.90
11615;DHT22;5863;52.832;4.758;2023-02-15T00:12:06;4.50;99.90
11615;DHT22;5863;52.832;4.758;2023-02-15T00:14:33;4.50;99.90
11615;DHT22;5863;52.832;4.758;2023-02-15T00:17:01;4.40;99.90
11615;DHT22;5863;52.832;4.758;2023-02-15T00:19:28;4.30;99.90
11615;DHT22;5863;52.832;4.758;2023-02-15T00:21:54;4.20;99.90
11615;DHT22;5863;52.832;4.758;2023-02-15T00:24:23;4.10;99.90
11615;DHT22;5863;52.832;4.758;2023-02-15T00:26:50;4.00;99.90
11615;DHT22;5863;52.832;4.758;2023-02-15T00:29:18;3.90;99.90
11615;DHT22;5863;52.832;4.758;2023-02-15T00:31:45;4.00;99.90
11615;DHT22;5863;52.832;4.758;2023-02-15T00:34:16;3.90;99.90
11615;DHT22;5863;52.832;4.758;2023-02-15T00:36:44;3.80;99.90
11615;DHT22;5863;52.832;4.758;2023-02-15T00:39:11;3.80;99.90
11615;DHT22;5863;52.832;4.758;2023-02-15T00:41:38;3.80;99.90
11615;DHT22;5863;52.832;4.758;2023-02-15T00:44:06;3.70;99.90
11615;DHT22;5863;52.832;4.758;2023-02-15T00:46:33;3.70;99.90
11615;DHT22;5863;52.832;4.758;2023-02-15T00:49:00;3.70;99.90
11615;DHT22;5863;52.832;4.758;2023-02-15T00:51:28;3.60;99.90
11615;DHT22;5863;52.832;4.758;2023-02-15T00:53:55;3.60;99.90
11615;DHT22;5863;52.832;4.758;2023-02-15T00:56:22;3.50;99.90
11615;DHT22;5863;52.832;4.758;2023-02-15T00:58:48;3.50;99.90
11615;DHT22;5863;52.832;4.758;2023-02-15T01:01:18;3.40;99.90
11615;DHT22;5863;52.832;4.758;2023-02-15T01:03:45;3.30;99.90
11615;DHT22;5863;52.832;4.758;2023-02-15T01:06:13;3.30;99.90
11615;DHT22;5863;52.832;4.758;2023-02-15T01:08:42;3.20;99.90
11615;DHT22;5863;52.832;4.758;2023-02-15T01:11:11;3.30;99.90
11615;DHT22;5863;52.832;4.758;2023-02-15T01:13:39;3.20;99.90
11615;DHT22;5863;52.832;4.758;2023-02-15T01:16:06;3.20;99.90
11615;DHT22;5863;52.832;4.758;2023-02-15T01:18:33;3.20;99.90
11615;DHT22;5863;52.832;4.758;2023-02-15T01:21:00;3.20;99.90
11615;DHT22;5863;52.832;4.758;2023-02-15T01:23:34;3.20;99.90
11615;DHT22;5863;52.832;4.758;2023-02-15T01:26:03;3.20;99.90
11615;DHT22;5863;52.832;4.758;2023-02-15T01:28:30;3.20;99.90
11615;DHT22;5863;52.832;4.758;2023-02-15T01:31:07;3.20;99.90
11615;DHT22;5863;52.832;4.758;2023-02-15T01:33:35;3.10;99.90
11615;DHT22;5863;52.832;4.758;2023-02-15T01:36:02;3.10;99.90
11615;DHT22;5863;52.832;4.758;2023-02-15T01:38:29;3.10;99.90
11615;DHT22;5863;52.832;4.758;2023-02-15T01:40:56;3.10;99.90
11615;DHT22;5863;52.832;4.758;2023-02-15T01:43:47;3.10;99.90
11615;DHT22;5863;52.832;4.758;2023-02-15T01:46:15;3.10;99.90
11615;DHT22;5863;52.832;4.758;2023-02-15T01:48:46;3.10;99.90
11615;DHT22;5863;52.832;4.758;2023-02-15T01:51:18;3.10;99.90
11615;DHT22;5863;52.832;4.758;2023-02-15T01:53:48;3.10;99.90
11615;DHT22;5863;52.832;4.758;2023-02-15T01:56:19;3.10;99.90
11615;DHT22;5863;52.832;4.758;2023-02-15T01:58:49;3.10;99.90
11615;DHT22;5863;52.832;4.758;2023-02-15T02:01:17;3.10;99.90
11615;DHT22;5863;52.832;4.758;2023-02-15T02:03:57;3.10;99.90
11615;DHT22;5863;52.832;4.758;2023-02-15T02:06:26;3.10;99.90
11615;DHT22;5863;52.832;4.758;2023-02-15T02:08:53;3.10;99.90
11615;DHT22;5863;52.832;4.758;2023-02-15T02:11:21;3.00;99.90
11615;DHT22;5863;52.832;4.758;2023-02-15T02:13:49;3.00;99.90
11615;DHT22;5863;52.832;4.758;2023-02-15T02:16:21;3.00;99.90
11615;DHT22;5863;52.832;4.758;2023-02-15T02:19:12;3.00;99.90
11615;DHT22;5863;52.832;4.758;2023-02-15T02:22:06;3.00;99.90
11615;DHT22;5863;52.832;4.758;2023-02-15T02:25:10;3.00;99.90
11615;DHT22;5863;52.832;4.758;2023-02-15T02:27:44;3.00;99.90
11615;DHT22;5863;52.832;4.758;2023-02-15T02:30:51;3.00;99.90
11615;DHT22;5863;52.832;4.758;2023-02-15T02:33:41;2.90;99.90
11615;DHT22;5863;52.832;4.758;2023-02-15T02:36:15;2.90;99.90
11615;DHT22;5863;52.832;4.758;2023-02-15T02:38:52;2.90;99.90
11615;DHT22;5863;52.832;4.758;2023-02-15T02:41:26;2.80;99.90
11615;DHT22;5863;52.832;4.758;2023-02-15T02:44:03;2.80;99.90
11615;DHT22;5863;52.832;4.758;2023-02-15T02:46:34;2.70;99.90
11615;DHT22;5863;52.832;4.758;2023-02-15T02:49:05;2.70;99.90
11615;DHT22;5863;52.832;4.758;2023-02-15T02:51:31;2.70;99.90
11615;DHT22;5863;52.832;4.758;2023-02-15T02:54:01;2.60;99.90
11615;DHT22;5863;52.832;4.758;2023-02-15T02:56:33;2.60;99.90
11615;DHT22;5863;52.832;4.758;2023-02-15T02:59:06;2.60;99.90
11615;DHT22;5863;52.832;4.758;2023-02-15T03:01:37;2.50;99.90
11615;DHT22;5863;52.832;4.758;2023-02-15T03:04:09;2.50;99.90
11615;DHT22;5863;52.832;4.758;2023-02-15T03:06:40;2.50;99.90
11615;DHT22;5863;52.832;4.758;2023-02-15T03:09:11;2.40;99.90
11615;DHT22;5863;52.832;4.758;2023-02-15T03:11:43;2.40;99.90
11615;DHT22;5863;52.832;4.758;2023-02-15T03:14:10;2.40;99.90
11615;DHT22;5863;52.832;4.758;2023-02-15T03:16:39;2.40;99.90
11615;DHT22;5863;52.832;4.758;2023-02-15T03:19:09;2.30;99.90
11615;DHT22;5863;52.832;4.758;2023-02-15T03:21:41;2.30;99.90
11615;DHT22;5863;52.832;4.758;2023-02-15T03:24:17;2.30;99.90
11615;DHT22;5863;52.832;4.758;2023-02-15T03:26:50;2.30;99.90
11615;DHT22;5863;52.832;4.758;2023-02-15T03:29:18;2.40;99.90
11615;DHT22;5863;52.832;4.758;2023-02-15T03:31:50;2.40;99.90
11615;DHT22;5863;52.832;4.758;2023-02-15T03:34:18;2.50;99.90
11615;DHT22;5863;52.832;4.758;2023-02-15T03:36:49;2.50;99.90
11615;DHT22;5863;52.832;4.758;2023-02-15T03:39:20;2.50;99.90
11615;DHT22;5863;52.832;4.758;2023-02-15T03:41:56;2.50;99.90
11615;DHT22;5863;52.832;4.758;2023-02-15T03:44:28;2.50;99.90
11615;DHT22;5863;52.832;4.758;2023-02-15T03:47:00;2.40;99.90
11615;DHT22;5863;52.832;4.758;2023-02-15T03:49:36;2.40;99.90
11615;DHT22;5863;52.832;4.758;2023-02-15T03:52:04;2.30;99.90
11615;DHT22;5863;52.832;4.758;2023-02-15T03:54:34;2.30;99.90
11615;DHT22;5863;52.832;4.758;2023-02-15T03:57:15;2.30;99.90
11615;DHT22;5863;52.832;4.758;2023-02-15T04:00:00;2.30;99.90
11615;DHT22;5863;52.832;4.758;2023-02-15T04:03:12;2.20;99.90
11615;DHT22;5863;52.832;4.758;2023-02-15T04:05:45;2.20;99.90
11615;DHT22;5863;52.832;4.758;2023-02-15T04:08:12;2.20;99.90
11615;DHT22;5863;52.832;4.758;2023-02-15T04:10:39;2.20;99.90
11615;DHT22;5863;52.832;4.758;2023-02-15T04:13:23;2.10;99.90
11615;DHT22;5863;52.832;4.758;2023-02-15T04:15:51;2.10;99.90
11615;DHT22;5863;52.832;4.758;2023-02-15T04:18:32;2.10;99.90
11615;DHT22;5863;52.832;4.758;2023-02-15T04:21:19;2.10;99.90
11615;DHT22;5863;52.832;4.758;2023-02-15T04:24:04;2.00;99.90
11615;DHT22;5863;52.832;4.758;2023-02-15T04:26:50;1.90;99.90
11615;DHT22;5863;52.832;4.758;2023-02-15T04:29:18;1.90;99.90
11615;DHT22;5863;52.832;4.758;2023-02-15T04:31:45;1.90;99.90
11615;DHT22;5863;52.832;4.758;2023-02-15T04:34:12;1.90;99.90
11615;DHT22;5863;52.832;4.758;2023-02-15T04:36:40;1.90;99.90
11615;DHT22;5863;52.832;4.758;2023-02-15T04:39:07;1.80;99.90
11615;DHT22;5863;52.832;4.758;2023-02-15T04:41:34;1.80;99.90
11615;DHT22;5863;52.832;4.758;2023-02-15T04:44:02;1.80;99.90
11615;DHT22;5863;52.832;4.758;2023-02-15T04:46:29;1.90;99.90
11615;DHT22;5863;52.832;4.758;2023-02-15T04:48:55;1.80;99.90
11615;DHT22;5863;52.832;4.758;2023-02-15T04:51:22;1.80;99.90
11615;DHT22;5863;52.832;4.758;2023-02-15T04:53:50;1.80;99.90
11615;DHT22;5863;52.832;4.758;2023-02-15T04:56:18;1.80;99.90
11615;DHT22;5863;52.832;4.758;2023-02-15T04:58:45;1.80;99.90
11615;DHT22;5863;52.832;4.758;2023-02-15T05:01:11;1.90;99.90
11615;DHT22;5863;52.832;4.758;2023-02-15T05:03:38;1.80;99.90
11615;DHT22;5863;52.832;4.758;2023-02-15T05:06:05;1.80;99.90
11615;DHT22;5863;52.832;4.758;2023-02-15T05:08:32;1.80;99.90
11615;DHT22;5863;52.832;4.758;2023-02-15T05:11:00;1.70;99.90
11615;DHT22;5863;52.832;4.758;2023-02-15T05:13:26;1.70;99.90
11615;DHT22;5863;52.832;4.758;2023-02-15T05:15:53;1.70;99.90
11615;DHT22;5863;52.832;4.758;2023-02-15T05:18:21;1.70;99.90
11615;DHT22;5863;52.832;4.758;2023-02-15T05:20:48;1.60;99.90
11615;DHT22;5863;52.832;4.758;2023-02-15T05:23:15;1.60;99.90
11615;DHT22;5863;52.832;4.758;2023-02-15T05:25:46;1.50;99.90
11615;DHT22;5863;52.832;4.758;2023-02-15T05:28:32;1.60;99.90
11615;DHT22;5863;52.832;4.758;2023-02-15T05:31:03;1.50;99.90
11615;DHT22;5863;52.832;4.758;2023-02-15T05:33:30;1.60;99.90
11615;DHT22;5863;52.832;4.758;2023-02-15T05:35:57;1.50;99.90
11615;DHT22;5863;52.832;4.758;2023-02-15T05:38:24;1.60;99.90
11615;DHT22;5863;52.832;4.758;2023-02-15T05:40:50;1.50;99.90
11615;DHT22;5863;52.832;4.758;2023-02-15T05:43:17;1.50;99.90
11615;DHT22;5863;52.832;4.758;2023-02-15T05:45:46;1.60;99.90
11615;DHT22;5863;52.832;4.758;2023-02-15T05:48:13;1.50;99.90
11615;DHT22;5863;52.832;4.758;2023-02-15T05:50:46;1.50;99.90
11615;DHT22;5863;52.832;4.758;2023-02-15T05:53:13;1.50;99.90
11615;DHT22;5863;52.832;4.758;2023-02-15T05:55:40;1.50;99.90
11615;DHT22;5863;52.832;4.758;2023-02-15T05:58:07;1.60;99.90
11615;DHT22;5863;52.832;4.758;2023-02-15T06:00:34;1.60;99.90
11615;DHT22;5863;52.832;4.758;2023-02-15T06:03:02;1.60;99.90
11615;DHT22;5863;52.832;4.758;2023-02-15T06:05:29;1.60;99.90
11615;DHT22;5863;52.832;4.758;2023-02-15T06:07:55;1.70;99.90
11615;DHT22;5863;52.832;4.758;2023-02-15T06:10:22;1.70;99.90
11615;DHT22;5863;52.832;4.758;2023-02-15T06:12:49;1.60;99.90
11615;DHT22;5863;52.832;4.758;2023-02-15T06:15:15;1.50;99.90
11615;DHT22;5863;52.832;4.758;2023-02-15T06:17:44;1.40;99.90
11615;DHT22;5863;52.832;4.758;2023-02-15T06:20:13;1.40;99.90
11615;DHT22;5863;52.832;4.758;2023-02-15T06:22:41;1.40;99.90
11615;DHT22;5863;52.832;4.758;2023-02-15T06:25:07;1.40;99.90
11615;DHT22;5863;52.832;4.758;2023-02-15T06:27:35;1.40;99.90
11615;DHT22;5863;52.832;4.758;2023-02-15T06:30:03;1.40;99.90
11615;DHT22;5863;52.832;4.758;2023-02-15T06:32:31;1.40;99.90
11615;DHT22;5863;52.832;4.758;2023-02-15T06:34:57;1.40;99.90
11615;DHT22;5863;52.832;4.758;2023-02-15T06:37:25;1.30;99.90
11615;DHT22;5863;52.832;4.758;2023-02-15T06:39:52;1.30;99.90
11615;DHT22;5863;52.832;4.758;2023-02-15T06:42:26;1.30;99.90
11615;DHT22;5863;52.832;4.758;2023-02-15T06:44:53;1.40;99.90
11615;DHT22;5863;52.832;4.758;2023-02-15T06:47:19;1.40;99.90
11615;DHT22;5863;52.832;4.758;2023-02-15T06:49:46;1.50;99.90
11615;DHT22;5863;52.832;4.758;2023-02-15T06:52:13;1.50;99.90
11615;DHT22;5863;52.832;4.758;2023-02-15T06:54:41;1.50;99.90
11615;DHT22;5863;52.832;4.758;2023-02-15T06:57:08;1.50;99.90
11615;DHT22;5863;52.832;4.758;2023-02-15T06:59:35;1.50;99.90
11615;DHT22;5863;52.832;4.758;2023-02-15T07:02:02;1.50;99.90
11615;DHT22;5863;52.832;4.758;2023-02-15T07:04:29;1.50;99.90
11615;DHT22;5863;52.832;4.758;2023-02-15T07:06:55;1.50;99.90
11615;DHT22;5863;52.832;4.758;2023-02-15T07:09:22;1.50;99.90
11615;DHT22;5863;52.832;4.758;2023-02-15T07:11:50;1.50;99.90
11615;DHT22;5863;52.832;4.758;2023-02-15T07:14:34;1.70;99.90
11615;DHT22;5863;52.832;4.758;2023-02-15T07:17:01;1.70;99.90
11615;DHT22;5863;52.832;4.758;2023-02-15T07:19:27;1.70;99.90
11615;DHT22;5863;52.832;4.758;2023-02-15T07:21:54;1.70;99.90
11615;DHT22;5863;52.832;4.758;2023-02-15T07:24:21;1.70;99.90
11615;DHT22;5863;52.832;4.758;2023-02-15T07:26:48;1.80;99.90
11615;DHT22;5863;52.832;4.758;2023-02-15T07:29:16;1.80;99.90
11615;DHT22;5863;52.832;4.758;2023-02-15T07:31:43;1.90;99.90
11615;DHT22;5863;52.832;4.758;2023-02-15T07:34:11;2.00;99.90
11615;DHT22;5863;52.832;4.758;2023-02-15T07:36:38;2.10;99.90
11615;DHT22;5863;52.832;4.758;2023-02-15T07:39:04;2.10;99.90
11615;DHT22;5863;52.832;4.758;2023-02-15T07:41:31;2.10;99.90
11615;DHT22;5863;52.832;4.758;2023-02-15T07:43:58;2.20;99.90
11615;DHT22;5863;52.832;4.758;2023-02-15T07:46:26;2.20;99.90
11615;DHT22;5863;52.832;4.758;2023-02-15T07:48:53;2.30;99.90
11615;DHT22;5863;52.832;4.758;2023-02-15T07:51:20;2.30;99.90
11615;DHT22;5863;52.832;4.758;2023-02-15T07:53:46;2.40;99.90
11615;DHT22;5863;52.832;4.758;2023-02-15T07:56:14;2.50;99.90
11615;DHT22;5863;52.832;4.758;2023-02-15T07:58:41;2.60;99.90
11615;DHT22;5863;52.832;4.758;2023-02-15T08:01:18;2.60;99.90
11615;DHT22;5863;52.832;4.758;2023-02-15T08:03:48;2.80;99.90
11615;DHT22;5863;52.832;4.758;2023-02-15T08:06:15;2.80;99.90
11615;DHT22;5863;52.832;4.758;2023-02-15T08:08:42;2.90;99.90
11615;DHT22;5863;52.832;4.758;2023-02-15T08:11:15;3.00;99.90
11615;DHT22;5863;52.832;4.758;2023-02-15T08:13:56;3.10;99.90
11615;DHT22;5863;52.832;4.758;2023-02-15T08:16:27;3.30;99.90
11615;DHT22;5863;52.832;4.758;2023-02-15T08:18:56;3.40;99.90
11615;DHT22;5863;52.832;4.758;2023-02-15T08:21:24;3.50;99.90
11615;DHT22;5863;52.832;4.758;2023-02-15T08:23:51;3.50;99.90
11615;DHT22;5863;52.832;4.758;2023-02-15T08:26:18;3.70;99.90
11615;DHT22;5863;52.832;4.758;2023-02-15T08:28:45;3.80;99.90
11615;DHT22;5863;52.832;4.758;2023-02-15T08:31:13;3.90;99.90
11615;DHT22;5863;52.832;4.758;2023-02-15T08:33:41;4.00;99.90
11615;DHT22;5863;52.832;4.758;2023-02-15T08:36:14;4.10;99.90
11615;DHT22;5863;52.832;4.758;2023-02-15T08:38:42;4.20;99.90
11615;DHT22;5863;52.832;4.758;2023-02-15T08:41:11;4.30;99.90
11615;DHT22;5863;52.832;4.758;2023-02-15T08:43:38;4.30;99.90
11615;DHT22;5863;52.832;4.758;2023-02-15T08:46:04;4.40;99.90
11615;DHT22;5863;52.832;4.758;2023-02-15T08:48:31;4.50;99.90
11615;DHT22;5863;52.832;4.758;2023-02-15T08:50:58;4.50;99.90
11615;DHT22;5863;52.832;4.758;2023-02-15T08:53:26;4.50;99.90
11615;DHT22;5863;52.832;4.758;2023-02-15T08:55:56;4.70;99.90
11615;DHT22;5863;52.832;4.758;2023-02-15T08:58:23;4.80;99.90
11615;DHT22;5863;52.832;4.758;2023-02-15T09:00:51;4.90;99.90
11615;DHT22;5863;52.832;4.758;2023-02-15T09:03:18;5.00;99.90
11615;DHT22;5863;52.832;4.758;2023-02-15T09:05:45;5.10;99.90
11615;DHT22;5863;52.832;4.758;2023-02-15T09:08:11;5.30;99.90
11615;DHT22;5863;52.832;4.758;2023-02-15T09:10:39;5.30;99.90
11615;DHT22;5863;52.832;4.758;2023-02-15T09:13:06;5.40;99.90
11615;DHT22;5863;52.832;4.758;2023-02-15T09:15:33;5.60;99.90
11615;DHT22;5863;52.832;4.758;2023-02-15T09:18:00;5.70;99.90
11615;DHT22;5863;52.832;4.758;2023-02-15T09:20:31;5.80;99.90
11615;DHT22;5863;52.832;4.758;2023-02-15T09:22:58;5.90;99.90
11615;DHT22;5863;52.832;4.758;2023-02-15T09:25:25;6.00;99.90
11615;DHT22;5863;52.832;4.758;2023-02-15T09:27:54;6.20;99.90
11615;DHT22;5863;52.832;4.758;2023-02-15T09:30:21;6.20;99.90
11615;DHT22;5863;52.832;4.758;2023-02-15T09:32:48;6.20;99.90
11615;DHT22;5863;52.832;4.758;2023-02-15T09:35:14;6.30;99.90
11615;DHT22;5863;52.832;4.758;2023-02-15T09:37:41;6.30;99.90
11615;DHT22;5863;52.832;4.758;2023-02-15T09:40:08;6.40;99.90
11615;DHT22;5863;52.832;4.758;2023-02-15T09:43:01;6.50;99.90
11615;DHT22;5863;52.832;4.758;2023-02-15T09:45:46;6.60;99.90
11615;DHT22;5863;52.832;4.758;2023-02-15T09:48:35;6.80;99.90
11615;DHT22;5863;52.832;4.758;2023-02-15T09:51:33;7.00;99.90
11615;DHT22;5863;52.832;4.758;2023-02-15T09:54:13;7.10;99.90
11615;DHT22;5863;52.832;4.758;2023-02-15T09:56:47;7.20;99.90
11615;DHT22;5863;52.832;4.758;2023-02-15T09:59:22;7.30;99.90
11615;DHT22;5863;52.832;4.758;2023-02-15T10:02:02;7.40;99.90
11615;DHT22;5863;52.832;4.758;2023-02-15T10:04:45;7.40;99.90
11615;DHT22;5863;52.832;4.758;2023-02-15T10:07:22;7.50;99.90
11615;DHT22;5863;52.832;4.758;2023-02-15T10:10:03;7.60;99.90
11615;DHT22;5863;52.832;4.758;2023-02-15T10:12:57;7.60;99.90
11615;DHT22;5863;52.832;4.758;2023-02-15T10:15:39;7.70;99.90
11615;DHT22;5863;52.832;4.758;2023-02-15T10:18:33;7.80;99.90
11615;DHT22;5863;52.832;4.758;2023-02-15T10:21:03;7.90;99.90
11615;DHT22;5863;52.832;4.758;2023-02-15T10:23:45;8.10;99.90
11615;DHT22;5863;52.832;4.758;2023-02-15T10:26:18;8.20;99.90
11615;DHT22;5863;52.832;4.758;2023-02-15T10:28:48;8.30;99.90
11615;DHT22;5863;52.832;4.758;2023-02-15T10:31:23;8.30;99.90
11615;DHT22;5863;52.832;4.758;2023-02-15T10:34:10;8.40;99.90
11615;DHT22;5863;52.832;4.758;2023-02-15T10:37:01;8.50;99.90
11615;DHT22;5863;52.832;4.758;2023-02-15T10:39:40;8.50;99.90
11615;DHT22;5863;52.832;4.758;2023-02-15T10:42:13;8.70;99.90
11615;DHT22;5863;52.832;4.758;2023-02-15T10:44:53;8.90;99.90
11615;DHT22;5863;52.832;4.758;2023-02-15T10:47:48;9.00;99.90
11615;DHT22;5863;52.832;4.758;2023-02-15T10:50:35;9.10;99.90
11615;DHT22;5863;52.832;4.758;2023-02-15T10:53:18;9.20;99.90
11615;DHT22;5863;52.832;4.758;2023-02-15T10:55:55;9.40;99.90
11615;DHT22;5863;52.832;4.758;2023-02-15T10:58:31;9.40;99.90
11615;DHT22;5863;52.832;4.758;2023-02-15T11:01:10;9.50;99.90
11615;DHT22;5863;52.832;4.758;2023-02-15T11:04:01;9.60;99.90
11615;DHT22;5863;52.832;4.758;2023-02-15T11:06:33;9.60;99.90
11615;DHT22;5863;52.832;4.758;2023-02-15T11:09:03;9.70;99.90
11615;DHT22;5863;52.832;4.758;2023-02-15T11:11:35;9.80;99.90
11615;DHT22;5863;52.832;4.758;2023-02-15T11:14:12;9.90;99.90
11615;DHT22;5863;52.832;4.758;2023-02-15T11:16:44;10.00;99.90
11615;DHT22;5863;52.832;4.758;2023-02-15T11:19:16;10.00;99.90
11615;DHT22;5863;52.832;4.758;2023-02-15T11:21:46;10.00;99.90
11615;DHT22;5863;52.832;4.758;2023-02-15T11:24:25;10.00;99.90
11615;DHT22;5863;52.832;4.758;2023-02-15T11:27:04;10.00;99.90
11615;DHT22;5863;52.832;4.758;2023-02-15T11:29:34;10.00;99.90
11615;DHT22;5863;52.832;4.758;2023-02-15T11:32:12;10.00;99.90
11615;DHT22;5863;52.832;4.758;2023-02-15T11:34:48;10.00;99.90
11615;DHT22;5863;52.832;4.758;2023-02-15T11:37:18;10.10;99.90
11615;DHT22;5863;52.832;4.758;2023-02-15T11:39:46;10.20;99.90
11615;DHT22;5863;52.832;4.758;2023-02-15T11:42:20;10.30;99.90
11615;DHT22;5863;52.832;4.758;2023-02-15T11:44:55;10.50;99.90
11615;DHT22;5863;52.832;4.758;2023-02-15T11:47:23;10.60;99.90
11615;DHT22;5863;52.832;4.758;2023-02-15T11:49:51;10.60;99.90
11615;DHT22;5863;52.832;4.758;2023-02-15T11:52:18;10.80;99.90
11615;DHT22;5863;52.832;4.758;2023-02-15T11:54:46;10.90;99.90
11615;DHT22;5863;52.832;4.758;2023-02-15T11:57:19;10.90;99.90
11615;DHT22;5863;52.832;4.758;2023-02-15T11:59:50;11.00;99.90
11615;DHT22;5863;52.832;4.758;2023-02-15T12:02:20;11.00;99.90
11615;DHT22;5863;52.832;4.758;2023-02-15T12:04:51;11.10;99.90
11615;DHT22;5863;52.832;4.758;2023-02-15T12:07:23;11.10;99.90
11615;DHT22;5863;52.832;4.758;2023-02-15T12:09:55;11.00;99.90
11615;DHT22;5863;52.832;4.758;2023-02-15T12:12:25;11.00;99.90
11615;DHT22;5863;52.832;4.758;2023-02-15T12:14:54;11.00;99.90
11615;DHT22;5863;52.832;4.758;2023-02-15T12:17:22;11.00;99.90
11615;DHT22;5863;52.832;4.758;2023-02-15T12:19:52;11.10;99.90
11615;DHT22;5863;52.832;4.758;2023-02-15T12:22:23;11.20;99.90
11615;DHT22;5863;52.832;4.758;2023-02-15T12:24:53;11.10;99.90
11615;DHT22;5863;52.832;4.758;2023-02-15T12:27:23;11.10;99.90
11615;DHT22;5863;52.832;4.758;2023-02-15T12:29:52;11.10;99.90
11615;DHT22;5863;52.832;4.758;2023-02-15T12:32:25;11.10;99.90
11615;DHT22;5863;52.832;4.758;2023-02-15T12:34:56;11.10;99.90
11615;DHT22;5863;52.832;4.758;2023-02-15T12:37:28;11.10;99.90
11615;DHT22;5863;52.832;4.758;2023-02-15T12:39:58;11.00;99.90
11615;DHT22;5863;52.832;4.758;2023-02-15T12:42:26;11.00;99.90
11615;DHT22;5863;52.832;4.758;2023-02-15T12:44:57;11.00;99.90
11615;DHT22;5863;52.832;4.758;2023-02-15T12:47:26;11.00;99.90
11615;DHT22;5863;52.832;4.758;2023-02-15T12:50:12;11.10;99.90
11615;DHT22;5863;52.832;4.758;2023-02-15T12:52:44;11.00;99.90
11615;DHT22;5863;52.832;4.758;2023-02-15T12:55:19;10.90;99.90
11615;DHT22;5863;52.832;4.758;2023-02-15T12:57:46;10.90;99.90
11615;DHT22;5863;52.832;4.758;2023-02-15T13:00:28;10.90;99.90
11615;DHT22;5863;52.832;4.758;2023-02-15T13:02:58;10.80;99.90
11615;DHT22;5863;52.832;4.758;2023-02-15T13:05:31;10.80;99.90
11615;DHT22;5863;52.832;4.758;2023-02-15T13:08:00;10.80;99.90
11615;DHT22;5863;52.832;4.758;2023-02-15T13:10:30;10.70;99.90
11615;DHT22;5863;52.832;4.758;2023-02-15T13:12:58;10.80;99.90
11615;DHT22;5863;52.832;4.758;2023-02-15T13:15:28;10.70;99.90
11615;DHT22;5863;52.832;4.758;2023-02-15T13:17:57;10.60;99.90
11615;DHT22;5863;52.832;4.758;2023-02-15T13:20:27;10.60;99.90
11615;DHT22;5863;52.832;4.758;2023-02-15T13:22:58;10.70;99.90
11615;DHT22;5863;52.832;4.758;2023-02-15T13:25:28;10.70;99.90
11615;DHT22;5863;52.832;4.758;2023-02-15T13:27:59;10.70;99.90
11615;DHT22;5863;52.832;4.758;2023-02-15T13:30:30;10.70;99.90
11615;DHT22;5863;52.832;4.758;2023-02-15T13:33:03;10.70;99.90
11615;DHT22;5863;52.832;4.758;2023-02-15T13:35:38;10.70;99.90
11615;DHT22;5863;52.832;4.758;2023-02-15T13:38:22;10.80;99.90
11615;DHT22;5863;52.832;4.758;2023-02-15T13:40:59;10.80;99.90
11615;DHT22;5863;52.832;4.758;2023-02-15T13:43:40;10.90;99.90
11615;DHT22;5863;52.832;4.758;2023-02-15T13:46:21;10.90;99.90
11615;DHT22;5863;52.832;4.758;2023-02-15T13:49:00;10.80;99.90
11615;DHT22;5863;52.832;4.758;2023-02-15T13:51:35;10.90;99.90
11615;DHT22;5863;52.832;4.758;2023-02-15T13:54:13;10.90;99.90
11615;DHT22;5863;52.832;4.758;2023-02-15T13:56:51;10.90;99.90
11615;DHT22;5863;52.832;4.758;2023-02-15T13:59:41;11.00;99.90
11615;DHT22;5863;52.832;4.758;2023-02-15T14:02:32;11.00;99.90
11615;DHT22;5863;52.832;4.758;2023-02-15T14:05:30;11.00;99.90
11615;DHT22;5863;52.832;4.758;2023-02-15T14:08:08;11.10;99.90
11615;DHT22;5863;52.832;4.758;2023-02-15T14:10:54;11.10;99.90
11615;DHT22;5863;52.832;4.758;2023-02-15T14:13:49;11.00;99.90
11615;DHT22;5863;52.832;4.758;2023-02-15T14:16:22;11.10;99.90
11615;DHT22;5863;52.832;4.758;2023-02-15T14:18:59;11.10;99.90
11615;DHT22;5863;52.832;4.758;2023-02-15T14:21:31;11.10;99.90
11615;DHT22;5863;52.832;4.758;2023-02-15T14:24:17;11.00;99.90
11615;DHT22;5863;52.832;4.758;2023-02-15T14:26:51;11.00;99.90
11615;DHT22;5863;52.832;4.758;2023-02-15T14:29:30;11.00;99.90
11615;DHT22;5863;52.832;4.758;2023-02-15T14:32:07;11.00;99.90
11615;DHT22;5863;52.832;4.758;2023-02-15T14:34:42;10.90;99.90
11615;DHT22;5863;52.832;4.758;2023-02-15T14:37:12;11.00;99.90
11615;DHT22;5863;52.832;4.758;2023-02-15T14:39:48;10.90;99.90
11615;DHT22;5863;52.832;4.758;2023-02-15T14:42:41;10.80;99.90
11615;DHT22;5863;52.832;4.758;2023-02-15T14:45:18;10.80;99.90
11615;DHT22;5863;52.832;4.758;2023-02-15T14:47:48;10.80;99.90
11615;DHT22;5863;52.832;4.758;2023-02-15T14:50:40;10.80;99.90
11615;DHT22;5863;52.832;4.758;2023-02-15T14:53:22;10.70;99.90
11615;DHT22;5863;52.832;4.758;2023-02-15T14:59:14;10.70;99.90
11615;DHT22;5863;52.832;4.758;2023-02-15T15:01:50;10.60;99.90
11615;DHT22;5863;52.832;4.758;2023-02-15T15:04:25;10.50;99.90
11615;DHT22;5863;52.832;4.758;2023-02-15T15:07:00;10.60;99.90
11615;DHT22;5863;52.832;4.758;2023-02-15T15:09:29;10.60;99.90
11615;DHT22;5863;52.832;4.758;2023-02-15T15:12:13;10.70;99.90
11615;DHT22;5863;52.832;4.758;2023-02-15T15:14:44;10.70;99.90
11615;DHT22;5863;52.832;4.758;2023-02-15T15:17:12;10.70;99.90
11615;DHT22;5863;52.832;4.758;2023-02-15T15:20:04;10.70;99.90
11615;DHT22;5863;52.832;4.758;2023-02-15T15:22:34;10.60;99.90
11615;DHT22;5863;52.832;4.758;2023-02-15T15:25:03;10.60;99.90
11615;DHT22;5863;52.832;4.758;2023-02-15T15:27:58;10.50;99.90
11615;DHT22;5863;52.832;4.758;2023-02-15T15:30:54;10.50;99.90
11615;DHT22;5863;52.832;4.758;2023-02-15T15:37:04;10.40;99.90
11615;DHT22;5863;52.832;4.758;2023-02-15T15:42:50;10.30;99.90
11615;DHT22;5863;52.832;4.758;2023-02-15T15:45:46;10.20;99.90
11615;DHT22;5863;52.832;4.758;2023-02-15T15:48:37;10.20;99.90
11615;DHT22;5863;52.832;4.758;2023-02-15T15:51:09;10.20;99.90
11615;DHT22;5863;52.832;4.758;2023-02-15T15:53:40;10.10;99.90
11615;DHT22;5863;52.832;4.758;2023-02-15T15:56:12;10.00;99.90
11615;DHT22;5863;52.832;4.758;2023-02-15T15:58:44;10.00;99.90
11615;DHT22;5863;52.832;4.758;2023-02-15T16:01:11;10.00;99.90
11615;DHT22;5863;52.832;4.758;2023-02-15T16:03:48;10.00;99.90
11615;DHT22;5863;52.832;4.758;2023-02-15T16:06:27;9.90;99.90
11615;DHT22;5863;52.832;4.758;2023-02-15T16:08:54;9.80;99.90
11615;DHT22;5863;52.832;4.758;2023-02-15T16:11:23;9.70;99.90
11615;DHT22;5863;52.832;4.758;2023-02-15T16:14:03;9.60;99.90
11615;DHT22;5863;52.832;4.758;2023-02-15T16:16:30;9.50;99.90
11615;DHT22;5863;52.832;4.758;2023-02-15T16:18:59;9.50;99.90
11615;DHT22;5863;52.832;4.758;2023-02-15T16:21:29;9.40;99.90
11615;DHT22;5863;52.832;4.758;2023-02-15T16:24:16;9.40;99.90
11615;DHT22;5863;52.832;4.758;2023-02-15T16:27:07;9.30;99.90
11615;DHT22;5863;52.832;4.758;2023-02-15T16:29:35;9.30;99.90
11615;DHT22;5863;52.832;4.758;2023-02-15T16:32:21;9.30;99.90
11615;DHT22;5863;52.832;4.758;2023-02-15T16:34:56;9.20;99.90
11615;DHT22;5863;52.832;4.758;2023-02-15T16:37:26;9.20;99.90
11615;DHT22;5863;52.832;4.758;2023-02-15T16:39:55;9.20;99.90
11615;DHT22;5863;52.832;4.758;2023-02-15T16:42:24;9.10;99.90